Time;durP1;ratioP1;P1;durP2;ratioP2;P2;SDS_P1;SDS_P2;PMS_P1;PMS_P2;Temp;Humidity;BMP_temperature;BMP_pressure;BME280_temperature;BME280_humidity;BME280_pressure;Samples;Min_cycle;Max_cycle;Signal;HPM_P1;HPM_P2
2022/06/27 00:04:20;;;;;;;;;;;;;;;;;;10456542;28;19925;-64
2022/06/27 00:09:22;;;;;;;;;;;;;;;;;;10460133;28;19933;-63
2022/06/27 00:14:24;;;;;;;;;;;;;;;;;;10471984;22;19948;-67
2022/06/27 00:19:26;;;;;;;;;;;;;;;;;;10491563;28;20374;-67
2022/06/27 00:24:28;;;;;;;;;;;;;;;;;;10506655;28;19931;-67
2022/06/27 00:29:30;;;;;;;;;;;;;;;;;;10479986;28;19929;-67
2022/06/27 00:34:32;;;;;;;;;;;;;;;;;;10464188;28;19925;-67
2022/06/27 00:39:34;;;;;;;;;;;;;;;;;;10464030;28;19932;-67
2022/06/27 00:44:36;;;;;;;;;;;;;;;;;;10474230;28;19924;-67
2022/06/27 00:49:38;;;;;;;;;;;;;;;;;;10466185;28;20295;-67
2022/06/27 00:54:41;;;;;;;;;;;;;;;;;;10463524;28;19936;-69
2022/06/27 00:59:43;;;;;;;;;;;;;;;;;;10463301;28;20390;-67
2022/06/27 01:04:45;;;;;;;;;;;;;;;;;;10464679;28;19931;-67
2022/06/27 01:09:47;;;;;;;;;;;;;;;;;;10463465;28;19925;-67
2022/06/27 01:14:49;;;;;;;;;;;;;;;;;;10462975;28;19971;-67
2022/06/27 01:19:51;;;;;;;;;;;;;;;;;;10477529;28;19925;-67
2022/06/27 01:24:53;;;;;;;;;;;;;;;;;;10470621;28;20283;-66
2022/06/27 01:29:55;;;;;;;;;;;;;;;;;;10504058;28;19931;-66
2022/06/27 01:34:57;;;;;;;;;;;;;;;;;;10501164;28;19932;-66
2022/06/27 01:40:00;;;;;;;;;;;;;;;;;;10462293;28;19925;-66
2022/06/27 01:45:02;;;;;;;;;;;;;;;;;;10461972;28;19925;-66
2022/06/27 01:50:04;;;;;;;;;;;;;;;;;;10461524;28;20403;-66
2022/06/27 01:55:06;;;;;;;;;;;;;;;;;;10473912;28;19932;-66
2022/06/27 02:00:07;;;;;;;;;;;;;;;;;;10462522;28;20286;-66
2022/06/27 02:05:09;;;;;;;;;;;;;;;;;;10461314;28;19931;-66
2022/06/27 02:10:11;;;;;;;;;;;;;;;;;;10471541;28;19924;-66
2022/06/27 02:15:14;;;;;;;;;;;;;;;;;;10461205;28;19931;-66
2022/06/27 02:20:16;;;;;;;;;;;;;;;;;;10460840;28;19924;-66
2022/06/27 02:25:18;;;;;;;;;;;;;;;;;;10460809;28;19931;-66
2022/06/27 02:30:20;;;;;;;;;;;;;;;;;;10472767;28;19933;-66
2022/06/27 02:35:22;;;;;;;;;;;;;;;;;;10485543;28;20397;-66
2022/06/27 02:40:24;;;;;;;;;;;;;;;;;;10501322;28;19924;-66
2022/06/27 02:45:29;;;;;;;;;;;;;;;;;;10479285;28;20279;-66
2022/06/27 02:50:31;;;;;;;;;;;;;;;;;;10458963;28;19932;-66
2022/06/27 02:55:34;;;;;;;;;;;;;;;;;;10459376;28;19956;-66
2022/06/27 03:00:36;;;;;;;;;;;;;;;;;;10463935;28;20007;-66
2022/06/27 03:05:38;;;;;;;;;;;;;;;;;;10465612;28;19947;-66
2022/06/27 03:10:40;;;;;;;;;;;;;;;;;;10458177;28;19936;-66
2022/06/27 03:15:42;;;;;;;;;;;;;;;;;;10458247;28;19931;-66
2022/06/27 03:20:44;;;;;;;;;;;;;;;;;;10470595;28;19947;-66
2022/06/27 03:25:46;;;;;;;;;;;;;;;;;;10458171;28;19925;-66
2022/06/27 03:30:48;;;;;;;;;;;;;;;;;;10457478;28;19925;-66
2022/06/27 03:35:50;;;;;;;;;;;;;;;;;;10470497;28;19935;-66
2022/06/27 03:40:53;;;;;;;;;;;;;;;;;;10457710;28;20280;-67
2022/06/27 03:45:58;;;;;;;;;;;;;;;;;;10494821;28;19924;-67
2022/06/27 03:51:00;;;;;;;;;;;;;;;;;;10497332;28;19928;-66
2022/06/27 03:56:02;;;;;;;;;;;;;;;;;;10460107;28;19971;-66
2022/06/27 04:01:04;;;;;;;;;;;;;;;;;;10457905;28;19925;-66
2022/06/27 04:06:06;;;;;;;;;;;;;;;;;;10457390;28;20019;-67
2022/06/27 04:11:08;;;;;;;;;;;;;;;;;;10469482;28;19932;-66
2022/06/27 04:16:10;;;;;;;;;;;;;;;;;;10456780;28;20368;-66
2022/06/27 04:21:13;;;;;;;;;;;;;;;;;;10456920;28;20362;-66
2022/06/27 04:26:15;;;;;;;;;;;;;;;;;;10463830;28;19924;-66
2022/06/27 04:31:17;;;;;;;;;;;;;;;;;;10461446;28;19925;-67
2022/06/27 04:36:19;;;;;;;;;;;;;;;;;;10456667;28;19924;-66
2022/06/27 04:41:21;;;;;;;;;;;;;;;;;;10456538;28;19931;-66
2022/06/27 04:46:23;;;;;;;;;;;;;;;;;;10468075;28;19931;-67
2022/06/27 04:51:26;;;;;;;;;;;;;;;;;;10471432;28;19924;-66
2022/06/27 04:56:30;;;;;;;;;;;;;;;;;;10497857;28;20001;-66
2022/06/27 05:01:32;;;;;;;;;;;;;;;;;;10498740;28;19925;-67
2022/06/27 05:06:34;;;;;;;;;;;;;;;;;;10463641;28;19924;-67
2022/06/27 05:11:36;;;;;;;;;;;;;;;;;;10462910;28;19947;-67
2022/06/27 05:16:39;;;;;;;;;;;;;;;;;;10484352;28;19929;-66
2022/06/27 05:21:41;;;;;;;;;;;;;;;;;;10463200;28;19932;-67
2022/06/27 05:26:45;;;;;;;;;;;;;;;;;;10462896;28;19955;-67
2022/06/27 05:31:47;;;;;;;;;;;;;;;;;;10463152;28;19925;-67
2022/06/27 05:36:49;;;;;;;;;;;;;;;;;;10474880;28;19971;-67
2022/06/27 05:41:52;;;;;;;;;;;;;;;;;;10474085;28;20430;-67
2022/06/27 05:46:55;;;;;;;;;;;;;;;;;;10463182;28;19932;-67
2022/06/27 05:51:57;;;;;;;;;;;;;;;;;;10472473;28;19924;-67
2022/06/27 05:57:00;;;;;;;;;;;;;;;;;;10462834;28;20346;-67
2022/06/27 06:02:02;;;;;;;;;;;;;;;;;;10461626;28;19925;-67
2022/06/27 06:07:04;;;;;;;;;;;;;;;;;;10460674;28;19932;-67
2022/06/27 06:12:09;;;;;;;;;;;;;;;;;;10480516;28;20298;-66
2022/06/27 06:17:17;;;;;;;;;;;;;;;;;;10500680;28;19924;-67
2022/06/27 06:22:19;;;;;;;;;;;;;;;;;;10501585;28;20376;-68
2022/06/27 06:27:21;;;;;;;;;;;;;;;;;;10481103;28;19928;-67
2022/06/27 06:32:24;;;;;;;;;;;;;;;;;;10459737;28;19948;-70
2022/06/27 06:37:29;;;;;;;;;;;;;;;;;;10491722;28;19931;-69
2022/06/27 06:42:32;;;;;;;;;;;;;;;;;;10486012;28;19937;-70
2022/06/27 06:47:35;;;;;;;;;;;;;;;;;;10460393;28;19948;-70
2022/06/27 06:52:39;;;;;;;;;;;;;;;;;;10489902;28;19924;-70
2022/06/27 06:57:41;;;;;;;;;;;;;;;;;;10459343;28;20079;-70
2022/06/27 07:02:43;;;;;;;;;;;;;;;;;;10470681;28;19925;-69
2022/06/27 07:07:50;;;;;;;;;;;;;;;;;;10458748;28;19959;-70
2022/06/27 07:12:52;;;;;;;;;;;;;;;;;;10497413;28;19946;-70
2022/06/27 07:17:55;;;;;;;;;;;;;;;;;;10482588;28;19931;-70
2022/06/27 07:22:57;;;;;;;;;;;;;;;;;;10457548;28;19925;-70
2022/06/27 07:28:00;;;;;;;;;;;;;;;;;;10480965;28;20015;-70
2022/06/27 07:33:02;;;;;;;;;;;;;;;;;;10484331;28;19935;-70
2022/06/27 07:38:05;;;;;;;;;;;;;;;;;;10468409;28;20363;-70
2022/06/27 07:43:09;;;;;;;;;;;;;;;;;;10468280;28;19931;-70
2022/06/27 07:48:12;;;;;;;;;;;;;;;;;;10496692;28;19929;-70
2022/06/27 07:53:18;;;;;;;;;;;;;;;;;;10471740;28;19924;-70
2022/06/27 07:58:21;;;;;;;;;;;;;;;;;;10457813;28;20391;-70
2022/06/27 08:03:39;;;;;;;;;;;;;;;;;;10456614;28;20368;-70
2022/06/27 08:08:42;;;;;;;;;;;;;;;;;;10468458;28;20024;-70
2022/06/27 08:13:45;;;;;;;;;;;;;;;;;;10455685;28;20004;-70
2022/06/27 08:18:47;;;;;;;;;;;;;;;;;;10481113;28;19924;-70
2022/06/27 08:23:51;;;;;;;;;;;;;;;;;;10497660;28;19932;-70
2022/06/27 08:28:54;;;;;;;;;;;;;;;;;;10481447;28;19925;-70
2022/06/27 08:34:01;;;;;;;;;;;;;;;;;;10502464;28;20397;-70
2022/06/27 08:39:05;;;;;;;;;;;;;;;;;;10475015;28;19979;-71
2022/06/27 08:44:08;;;;;;;;;;;;;;;;;;10482354;28;19972;-71
2022/06/27 08:49:10;;;;;;;;;;;;;;;;;;10464345;28;19929;-71
2022/06/27 08:54:12;;;;;;;;;;;;;;;;;;10479510;28;19931;-71
2022/06/27 08:59:15;;;;;;;;;;;;;;;;;;10476900;28;19931;-71
2022/06/27 09:04:21;;;;;;;;;;;;;;;;;;10466409;28;19929;-71
2022/06/27 09:09:27;;;;;;;;;;;;;;;;;;10491766;28;19924;-71
2022/06/27 09:14:29;;;;;;;;;;;;;;;;;;10471281;28;20380;-71
2022/06/27 09:19:31;;;;;;;;;;;;;;;;;;10474803;28;20363;-71
2022/06/27 09:24:34;;;;;;;;;;;;;;;;;;10466446;28;19924;-71
2022/06/27 09:29:37;;;;;;;;;;;;;;;;;;10486227;28;19932;-71
2022/06/27 09:34:40;;;;;;;;;;;;;;;;;;10484429;28;19924;-71
2022/06/27 09:39:42;;;;;;;;;;;;;;;;;;10482698;28;19962;-71
2022/06/27 09:44:45;;;;;;;;;;;;;;;;;;10500384;28;20314;-71
2022/06/27 09:50:13;;;;;;;;;;;;;;;;;;10495108;28;19916;-71
2022/06/27 09:55:18;;;;;;;;;;;;;;;;;;10461984;28;19925;-72
2022/06/27 10:00:20;;;;;;;;;;;;;;;;;;10461598;28;19999;-72
2022/06/27 10:05:22;;;;;;;;;;;;;;;;;;10460822;28;20289;-71
2022/06/27 10:10:24;;;;;;;;;;;;;;;;;;10471523;28;20371;-72
2022/06/27 10:15:26;;;;;;;;;;;;;;;;;;10483867;28;19924;-71
2022/06/27 10:20:29;;;;;;;;;;;;;;;;;;10502485;28;19925;-72
2022/06/27 10:25:31;;;;;;;;;;;;;;;;;;10501374;28;20374;-72
2022/06/27 10:30:33;;;;;;;;;;;;;;;;;;10501240;28;20314;-72
2022/06/27 10:35:35;;;;;;;;;;;;;;;;;;10500536;28;19925;-72
2022/06/27 10:40:38;;;;;;;;;;;;;;;;;;10501012;28;19925;-72
2022/06/27 10:45:40;;;;;;;;;;;;;;;;;;10500660;28;20290;-72
2022/06/27 10:50:42;;;;;;;;;;;;;;;;;;10500384;28;20426;-72
2022/06/27 10:55:44;;;;;;;;;;;;;;;;;;10500078;28;20279;-72
2022/06/27 11:00:47;;;;;;;;;;;;;;;;;;10500884;28;19925;-73
2022/06/27 11:05:49;;;;;;;;;;;;;;;;;;10499868;28;19924;-72
2022/06/27 11:10:51;;;;;;;;;;;;;;;;;;10500358;28;19931;-72
2022/06/27 11:15:53;;;;;;;;;;;;;;;;;;10499261;28;20381;-72
2022/06/27 11:20:55;;;;;;;;;;;;;;;;;;10500633;28;19931;-73
2022/06/27 11:25:57;;;;;;;;;;;;;;;;;;10500102;28;19931;-73
2022/06/27 11:36:20;;;;;;;;;;;;;;;;;;10498813;28;20409;-73
2022/06/27 11:41:22;;;;;;;;;;;;;;;;;;10499312;28;19938;-72
2022/06/27 11:46:24;;;;;;;;;;;;;;;;;;10499045;28;20282;-72
2022/06/27 11:51:26;;;;;;;;;;;;;;;;;;10499518;28;19931;-73
2022/06/27 11:56:29;;;;;;;;;;;;;;;;;;10499003;28;19950;-72
2022/06/27 12:01:31;;;;;;;;;;;;;;;;;;10465468;28;19925;-73
2022/06/27 12:06:33;;;;;;;;;;;;;;;;;;10460282;28;19936;-73
2022/06/27 12:11:35;;;;;;;;;;;;;;;;;;10464963;28;19925;-72
2022/06/27 12:16:37;;;;;;;;;;;;;;;;;;10456963;28;19931;-73
2022/06/27 12:21:39;;;;;;;;;;;;;;;;;;10459201;28;19925;-73
2022/06/27 12:31:45;;;;;;;;;;;;;;;;;;10373078;28;19926;-67
2022/06/27 12:36:48;;;;;;;;;;;;;;;;;;10357983;28;19933;-67
2022/06/27 12:41:50;;;;;;;;;;;;;;;;;;10331751;28;19933;-67
2022/06/27 12:46:52;;;;;;;;;;;;;;;;;;10333206;28;19926;-67
2022/06/27 12:51:58;;;;;;;;;;;;;;;;;;10333239;28;20278;-67
2022/06/27 12:57:03;;;;;;;;;;;;;;;;;;10333765;28;20004;-67
2022/06/27 13:02:05;;;;;;;;;;;;;;;;;;10334172;28;19925;-67
2022/06/27 13:07:07;;;;;;;;;;;;;;;;;;10333548;28;19933;-67
2022/06/27 13:12:09;;;;;;;;;;;;;;;;;;10333339;28;19925;-67
2022/06/27 13:17:11;;;;;;;;;;;;;;;;;;10332816;28;19933;-67
2022/06/27 13:22:13;;;;;;;;;;;;;;;;;;10338374;28;19932;-67
2022/06/27 13:27:15;;;;;;;;;;;;;;;;;;10339488;28;20369;-68
2022/06/27 13:32:17;;;;;;;;;;;;;;;;;;10340186;28;19930;-67
2022/06/27 13:37:19;;;;;;;;;;;;;;;;;;10339949;28;19945;-67
2022/06/27 13:42:21;;;;;;;;;;;;;;;;;;10339129;28;20373;-67
2022/06/27 13:47:23;;;;;;;;;;;;;;;;;;10339515;28;19930;-67
2022/06/27 13:52:26;;;;;;;;;;;;;;;;;;10339378;28;19965;-65
2022/06/27 13:57:28;;;;;;;;;;;;;;;;;;10339144;28;19958;-63
2022/06/27 14:02:30;;;;;;;;;;;;;;;;;;10339017;28;19932;-62
2022/06/27 14:07:44;;;;;;;;;;;;;;;;;;10338732;28;19925;-62
2022/06/27 14:12:47;;;;;;;;;;;;;;;;;;10338601;28;19926;-62
2022/06/27 14:17:55;;;;;;;;;;;;;;;;;;10337794;28;19925;-62
2022/06/27 14:22:57;;;;;;;;;;;;;;;;;;10337679;28;20395;-62
2022/06/27 14:27:59;;;;;;;;;;;;;;;;;;10337825;28;19925;-62
2022/06/27 14:33:01;;;;;;;;;;;;;;;;;;10337433;28;19925;-63
2022/06/27 14:38:21;;;;;;;;;;;;;;;;;;10338220;28;19926;-63
2022/06/27 14:43:23;;;;;;;;;;;;;;;;;;10362000;28;19933;-62
2022/06/27 14:48:25;;;;;;;;;;;;;;;;;;10377729;28;19932;-62
2022/06/27 14:53:28;;;;;;;;;;;;;;;;;;10341152;28;19926;-62
2022/06/27 14:58:30;;;;;;;;;;;;;;;;;;10336718;28;20001;-62
2022/06/27 15:03:32;;;;;;;;;;;;;;;;;;10372182;28;20304;-63
2022/06/27 15:08:41;;;;;;;;;;;;;;;;;;10376827;28;19940;-63
2022/06/27 15:13:43;;;;;;;;;;;;;;;;;;10371144;28;20300;-63
2022/06/27 15:18:45;;;;;;;;;;;;;;;;;;10376201;28;19925;-62
2022/06/27 15:23:48;;;;;;;;;;;;;;;;;;10376412;28;19925;-63
2022/06/27 15:28:50;;;;;;;;;;;;;;;;;;10375590;28;20277;-63
2022/06/27 15:33:52;;;;;;;;;;;;;;;;;;10336700;28;19926;-63
2022/06/27 15:38:54;;;;;;;;;;;;;;;;;;10336619;28;19929;-63
2022/06/27 15:43:56;;;;;;;;;;;;;;;;;;10374428;28;20365;-63
2022/06/27 15:48:58;;;;;;;;;;;;;;;;;;10373647;28;19934;-63
2022/06/27 15:54:03;;;;;;;;;;;;;;;;;;10374993;28;19926;-63
2022/06/27 15:59:05;;;;;;;;;;;;;;;;;;10375626;28;19925;-62
2022/06/27 16:04:07;;;;;;;;;;;;;;;;;;10375337;28;19932;-65
2022/06/27 16:09:09;;;;;;;;;;;;;;;;;;10375203;28;19933;-62
2022/06/27 16:14:11;;;;;;;;;;;;;;;;;;10375183;28;20013;-62
2022/06/27 16:19:14;;;;;;;;;;;;;;;;;;10374423;28;20296;-62
2022/06/27 16:24:16;;;;;;;;;;;;;;;;;;10351253;28;19949;-62
2022/06/27 16:29:18;;;;;;;;;;;;;;;;;;10333730;28;19926;-62
2022/06/27 16:34:20;;;;;;;;;;;;;;;;;;10334220;28;19932;-62
2022/06/27 16:39:25;;;;;;;;;;;;;;;;;;10335197;28;19926;-62
2022/06/27 16:44:27;;;;;;;;;;;;;;;;;;10352449;28;19925;-62
2022/06/27 16:49:29;;;;;;;;;;;;;;;;;;10363169;28;19926;-62
2022/06/27 16:54:31;;;;;;;;;;;;;;;;;;10365605;28;19925;-61
2022/06/27 16:59:33;;;;;;;;;;;;;;;;;;10381982;28;19941;-64
2022/06/27 17:04:35;;;;;;;;;;;;;;;;;;10381119;28;19933;-63
2022/06/27 17:09:37;;;;;;;;;;;;;;;;;;10360507;28;20280;-63
2022/06/27 17:14:39;;;;;;;;;;;;;;;;;;10340839;28;19933;-63
2022/06/27 17:19:41;;;;;;;;;;;;;;;;;;10340865;28;19930;-63
2022/06/27 17:24:43;;;;;;;;;;;;;;;;;;10341624;28;19934;-63
2022/06/27 17:29:46;;;;;;;;;;;;;;;;;;10339913;28;19926;-63
2022/06/27 17:34:48;;;;;;;;;;;;;;;;;;10365737;28;19932;-63
2022/06/27 17:39:50;;;;;;;;;;;;;;;;;;10380414;28;19926;-63
2022/06/27 17:44:52;;;;;;;;;;;;;;;;;;10379167;28;19930;-63
2022/06/27 17:49:54;;;;;;;;;;;;;;;;;;10379987;28;19936;-63
2022/06/27 17:54:56;;;;;;;;;;;;;;;;;;10375936;28;19933;-63
2022/06/27 17:59:58;;;;;;;;;;;;;;;;;;10379036;28;19949;-63
2022/06/27 18:05:00;;;;;;;;;;;;;;;;;;10376378;28;19926;-63
2022/06/27 18:10:03;;;;;;;;;;;;;;;;;;10378107;28;19925;-64
2022/06/27 18:15:05;;;;;;;;;;;;;;;;;;10376636;28;20295;-64
2022/06/27 18:20:09;;;;;;;;;;;;;;;;;;10378277;28;19932;-64
2022/06/27 18:25:13;;;;;;;;;;;;;;;;;;10364590;28;19926;-64
2022/06/27 18:30:17;;;;;;;;;;;;;;;;;;10337672;28;19933;-64
2022/06/27 18:35:39;;;;;;;;;;;;;;;;;;10354710;28;20382;-64
2022/06/27 18:40:41;;;;;;;;;;;;;;;;;;10376371;28;20381;-64
2022/06/27 18:45:43;;;;;;;;;;;;;;;;;;10375609;28;19932;-64
2022/06/27 18:50:45;;;;;;;;;;;;;;;;;;10376767;28;19930;-64
2022/06/27 18:55:49;;;;;;;;;;;;;;;;;;10357977;28;20373;-64
2022/06/27 19:00:52;;;;;;;;;;;;;;;;;;10336183;28;20388;-64
2022/06/27 19:05:54;;;;;;;;;;;;;;;;;;10356804;28;19932;-64
2022/06/27 19:10:56;;;;;;;;;;;;;;;;;;10376387;28;19932;-64
2022/06/27 19:15:58;;;;;;;;;;;;;;;;;;10366284;28;19925;-64
2022/06/27 19:21:00;;;;;;;;;;;;;;;;;;10376622;28;19925;-64
2022/06/27 19:26:02;;;;;;;;;;;;;;;;;;10374172;28;20292;-64
2022/06/27 19:31:04;;;;;;;;;;;;;;;;;;10375597;28;19933;-65
2022/06/27 19:36:06;;;;;;;;;;;;;;;;;;10373833;28;19925;-64
2022/06/27 19:41:08;;;;;;;;;;;;;;;;;;10375149;28;19934;-64
2022/06/27 19:46:12;;;;;;;;;;;;;;;;;;10373034;28;21571;-64
2022/06/27 19:51:14;;;;;;;;;;;;;;;;;;10363434;28;20352;-64
2022/06/27 19:56:16;;;;;;;;;;;;;;;;;;10356751;28;19929;-64
2022/06/27 20:01:19;;;;;;;;;;;;;;;;;;10375475;28;19925;-64
2022/06/27 20:06:21;;;;;;;;;;;;;;;;;;10349966;28;19930;-64
2022/06/27 20:11:23;;;;;;;;;;;;;;;;;;10334171;28;19926;-64
2022/06/27 20:16:26;;;;;;;;;;;;;;;;;;10356204;28;20399;-63
2022/06/27 20:21:28;;;;;;;;;;;;;;;;;;10374407;28;19926;-64
2022/06/27 20:26:31;;;;;;;;;;;;;;;;;;10373352;28;20012;-64
2022/06/27 20:31:33;;;;;;;;;;;;;;;;;;10381862;28;19925;-64
2022/06/27 20:36:35;;;;;;;;;;;;;;;;;;10378836;28;19929;-64
2022/06/27 20:41:37;;;;;;;;;;;;;;;;;;10341535;28;20374;-64
2022/06/27 20:46:39;;;;;;;;;;;;;;;;;;10368257;28;19933;-64
2022/06/27 20:51:42;;;;;;;;;;;;;;;;;;10342659;28;19926;-63
2022/06/27 20:56:44;;;;;;;;;;;;;;;;;;10368295;28;19926;-63
2022/06/27 21:01:46;;;;;;;;;;;;;;;;;;10379702;28;19933;-63
2022/06/27 21:06:48;;;;;;;;;;;;;;;;;;10374440;28;19976;-63
2022/06/27 21:11:52;;;;;;;;;;;;;;;;;;10339078;28;20362;-63
2022/06/27 21:16:54;;;;;;;;;;;;;;;;;;10371820;28;19932;-63
2022/06/27 21:21:57;;;;;;;;;;;;;;;;;;10357139;28;19925;-63
2022/06/27 21:27:00;;;;;;;;;;;;;;;;;;10371715;28;19926;-63
2022/06/27 21:32:03;;;;;;;;;;;;;;;;;;10380723;28;19969;-64
2022/06/27 21:37:05;;;;;;;;;;;;;;;;;;10347546;28;20024;-64
2022/06/27 21:42:07;;;;;;;;;;;;;;;;;;10338475;28;19933;-63
2022/06/27 21:47:09;;;;;;;;;;;;;;;;;;10371491;28;19949;-63
2022/06/27 21:57:32;;;;;;;;;;;;;;;;;;10343570;28;19926;-64
2022/06/27 22:02:34;;;;;;;;;;;;;;;;;;10338392;28;20299;-63
2022/06/27 22:07:37;;;;;;;;;;;;;;;;;;10374004;28;20384;-63
2022/06/27 22:12:39;;;;;;;;;;;;;;;;;;10378518;28;19925;-63
2022/06/27 22:17:41;;;;;;;;;;;;;;;;;;10342117;28;19929;-63
2022/06/27 22:22:44;;;;;;;;;;;;;;;;;;10364335;28;19925;-63
2022/06/27 22:27:46;;;;;;;;;;;;;;;;;;10340560;28;20300;-64
2022/06/27 22:32:48;;;;;;;;;;;;;;;;;;10337790;28;19933;-63
2022/06/27 22:37:50;;;;;;;;;;;;;;;;;;10374771;28;19932;-63
2022/06/27 22:42:52;;;;;;;;;;;;;;;;;;10377392;28;20288;-63
2022/06/27 22:47:54;;;;;;;;;;;;;;;;;;10340112;28;19968;-63
2022/06/27 22:52:56;;;;;;;;;;;;;;;;;;10336670;28;19925;-63
2022/06/27 22:57:58;;;;;;;;;;;;;;;;;;10373456;28;19925;-63
2022/06/27 23:03:00;;;;;;;;;;;;;;;;;;10376638;28;20262;-63
2022/06/27 23:08:03;;;;;;;;;;;;;;;;;;10337526;28;19933;-63
2022/06/27 23:13:05;;;;;;;;;;;;;;;;;;10336208;28;19933;-63
2022/06/27 23:18:07;;;;;;;;;;;;;;;;;;10375920;28;19933;-63
2022/06/27 23:23:09;;;;;;;;;;;;;;;;;;10374296;28;19931;-63
2022/06/27 23:28:11;;;;;;;;;;;;;;;;;;10334946;28;20381;-63
2022/06/27 23:33:13;;;;;;;;;;;;;;;;;;10337146;28;19934;-63
2022/06/27 23:38:15;;;;;;;;;;;;;;;;;;10375829;28;19925;-63
2022/06/27 23:43:17;;;;;;;;;;;;;;;;;;10370552;28;19933;-63
2022/06/27 23:48:19;;;;;;;;;;;;;;;;;;10334475;28;20304;-63
2022/06/27 23:53:21;;;;;;;;;;;;;;;;;;10339549;28;20380;-63
2022/06/27 23:58:23;;;;;;;;;;;;;;;;;;10375450;28;19925;-63
